Kezdőlap
METAR-TAF:

METAR-TAF

Repülőterek :

Forest City, Iowa, Amerikai Egyesült Államok

földrajzi szélesség: 43-14-05N, földrajzi hosszúság: 093-37-27W, magasság: 375 m

Jelenlegi meteorológiai megfigyelések

A jelentés 9 perccel ezelõtt készült, 16:15 UTC
Szélcsend
Hőmérséklet -15°C
Páratartalom 85%
Légköri nyomás 1020 hPa
Látótávolság: 16.1 km
Szórványos felhőzet 5000 lábon

METAR: KFXY 151615Z AUTO 00000KT 10SM SCT050 M15/M17 A3012 RMK AO2

Idő: 10:24 (16:24 UTC)


TAF: hiányzik

Meteorológiai megfigyelések és előrejelzések több, mint 4000 repülőtéren (METAR és TAF jelentéseket).

A térképen piros és sárga pontok jelzik az elérhető meteorológiai állomásokat.

Mozgassa az egeret a pont fölött, hogy megjelenjen az állomás neve.

Azután kattintson az időjárási megfigyelések és előrejelzések megtekintéséhez.

A térkép megváltoztatása: kattintson a fekete keresztel jelölt zöld gombra ráközelítéshez, a vonallal jelölt zöld gombra távolításhoz, vagy a zöld nyilakra a szomszédos térképek eléréséhez.


METAR-TAF: